KCMX

Houghton County Memorial Airport

Hancock, Michigan, USA
KCMX 182340Z 1900/1924 03005KT 4SM -SHSN OVC025 TEMPO 1900/1903 2SM -SHSN BKN015 FM191400 33012G22KT 2SM -SHSN BKN015
Issued Valid From Valid To
Jan-18 @ 23:40 UTC
(3 hours ago)
Jan-19 @ 00:00 UTC
(3 hours ago)
Jan-20 @ 00:00 UTC
(in 21 hours)
Jan-19 @ 00:00 to Jan-19 @ 14:00
KCMX 182340Z 1900/1924 03005KT 4SM -SHSN OVC025
Wind Visibility Clouds Conditions
30° at 5 knots 4 miles
  • Overcast at 2,500' AGL
  • Light Snow
Temporary Jan-19 @ 00:00 to Jan-19 @ 03:00
TEMPO 1900/1903 2SM -SHSN BKN015
Visibility Clouds Conditions
2 miles
  • Broken at 1,500' AGL
  • Light Snow
From Jan-19 @ 14:00 to Jan-20 @ 00:00
FM191400 33012G22KT 2SM -SHSN BKN015
Wind Visibility Clouds Conditions
330° at 12 knots
 Gusting to 22 knots
2 miles
  • Broken at 1,500' AGL
  • Light Snow
KCMX 182340Z 1900/1924 03005KT 4SM -SHSN OVC025 TEMPO 1900/1903 2SM -SHSN BKN015 FM191400 33012G22KT 2SM -SHSN BKN015
Issued Jan-18 @ 23:40 UTC
(3 hours ago)
Valid From Jan-19 @ 00:00 UTC
(3 hours ago)
Valid To Jan-20 @ 00:00 UTC
(in 21 hours)
Jan-19 @ 00:00 - Jan-19 @ 14:00
Wind Visibility
30° at 5 knots 4 miles
Clouds
  • Overcast at 2,500' AGL
Conditions
  • Light Snow
Temporary Jan-19 @ 00:00 - Jan-19 @ 03:00
Clouds
  • Broken at 1,500' AGL
Conditions
  • Light Snow
From Jan-19 @ 14:00 - Jan-20 @ 00:00
Wind Visibility
330° at 12 knots
 Gusting to 22 knots
2 miles
Clouds
  • Broken at 1,500' AGL
Conditions
  • Light Snow